sensor_id;sensor_type;location;lat;lon;timestamp;P1;durP1;ratioP1;P2;durP2;ratioP2
10497;SDS011;5296;51.060;13.750;2024-03-02T00:05:00;46.42;;;30.23;;
10497;SDS011;5296;51.060;13.750;2024-03-02T00:10:07;43.75;;;32.40;;
10497;SDS011;5296;51.060;13.750;2024-03-02T00:20:23;40.50;;;30.55;;
10497;SDS011;5296;51.060;13.750;2024-03-02T00:25:25;41.35;;;31.73;;
10497;SDS011;5296;51.060;13.750;2024-03-02T00:35:54;42.10;;;32.15;;
10497;SDS011;5296;51.060;13.750;2024-03-02T00:40:56;42.30;;;32.63;;
10497;SDS011;5296;51.060;13.750;2024-03-02T00:46:00;38.85;;;29.75;;
10497;SDS011;5296;51.060;13.750;2024-03-02T00:51:02;39.88;;;30.42;;
10497;SDS011;5296;51.060;13.750;2024-03-02T00:56:08;37.95;;;29.38;;
10497;SDS011;5296;51.060;13.750;2024-03-02T01:01:11;40.75;;;30.88;;
10497;SDS011;5296;51.060;13.750;2024-03-02T01:06:12;42.75;;;32.20;;
10497;SDS011;5296;51.060;13.750;2024-03-02T01:11:14;44.13;;;32.63;;
10497;SDS011;5296;51.060;13.750;2024-03-02T01:16:16;44.63;;;32.55;;
10497;SDS011;5296;51.060;13.750;2024-03-02T01:21:17;45.13;;;32.97;;
10497;SDS011;5296;51.060;13.750;2024-03-02T01:26:19;40.22;;;31.27;;
10497;SDS011;5296;51.060;13.750;2024-03-02T01:31:21;38.58;;;30.77;;
10497;SDS011;5296;51.060;13.750;2024-03-02T01:36:23;42.70;;;32.42;;
10497;SDS011;5296;51.060;13.750;2024-03-02T01:41:25;38.13;;;30.33;;
10497;SDS011;5296;51.060;13.750;2024-03-02T01:46:26;39.25;;;31.27;;
10497;SDS011;5296;51.060;13.750;2024-03-02T01:51:28;41.70;;;31.20;;
10497;SDS011;5296;51.060;13.750;2024-03-02T01:56:30;39.75;;;30.48;;
10497;SDS011;5296;51.060;13.750;2024-03-02T02:01:32;39.60;;;30.80;;
10497;SDS011;5296;51.060;13.750;2024-03-02T02:06:33;40.55;;;32.05;;
10497;SDS011;5296;51.060;13.750;2024-03-02T02:11:35;41.55;;;31.88;;
10497;SDS011;5296;51.060;13.750;2024-03-02T02:16:37;48.47;;;34.78;;
10497;SDS011;5296;51.060;13.750;2024-03-02T02:21:41;44.85;;;34.47;;
10497;SDS011;5296;51.060;13.750;2024-03-02T02:26:44;45.30;;;32.95;;
10497;SDS011;5296;51.060;13.750;2024-03-02T02:31:45;44.55;;;32.72;;
10497;SDS011;5296;51.060;13.750;2024-03-02T02:36:47;42.95;;;32.33;;
10497;SDS011;5296;51.060;13.750;2024-03-02T02:41:49;44.70;;;32.78;;
10497;SDS011;5296;51.060;13.750;2024-03-02T02:46:50;42.05;;;31.95;;
10497;SDS011;5296;51.060;13.750;2024-03-02T02:51:52;42.03;;;32.72;;
10497;SDS011;5296;51.060;13.750;2024-03-02T02:56:54;42.97;;;32.40;;
10497;SDS011;5296;51.060;13.750;2024-03-02T03:01:55;43.65;;;32.88;;
10497;SDS011;5296;51.060;13.750;2024-03-02T03:06:57;40.55;;;31.98;;
10497;SDS011;5296;51.060;13.750;2024-03-02T03:11:59;42.83;;;32.80;;
10497;SDS011;5296;51.060;13.750;2024-03-02T03:17:01;42.75;;;31.67;;
10497;SDS011;5296;51.060;13.750;2024-03-02T03:22:02;39.78;;;32.13;;
10497;SDS011;5296;51.060;13.750;2024-03-02T03:27:05;44.75;;;32.63;;
10497;SDS011;5296;51.060;13.750;2024-03-02T03:32:06;42.67;;;32.10;;
10497;SDS011;5296;51.060;13.750;2024-03-02T03:37:08;38.92;;;31.98;;
10497;SDS011;5296;51.060;13.750;2024-03-02T03:42:11;42.42;;;32.83;;
10497;SDS011;5296;51.060;13.750;2024-03-02T03:47:12;39.60;;;32.33;;
10497;SDS011;5296;51.060;13.750;2024-03-02T03:52:14;42.85;;;32.40;;
10497;SDS011;5296;51.060;13.750;2024-03-02T03:57:16;41.35;;;33.25;;
10497;SDS011;5296;51.060;13.750;2024-03-02T04:02:18;43.67;;;33.40;;
10497;SDS011;5296;51.060;13.750;2024-03-02T04:07:20;39.85;;;32.22;;
10497;SDS011;5296;51.060;13.750;2024-03-02T04:12:21;45.00;;;33.50;;
10497;SDS011;5296;51.060;13.750;2024-03-02T04:17:23;40.63;;;32.45;;
10497;SDS011;5296;51.060;13.750;2024-03-02T04:22:26;40.67;;;30.77;;
10497;SDS011;5296;51.060;13.750;2024-03-02T04:27:28;41.70;;;31.20;;
10497;SDS011;5296;51.060;13.750;2024-03-02T04:32:30;45.38;;;31.73;;
10497;SDS011;5296;51.060;13.750;2024-03-02T04:37:34;42.67;;;32.55;;
10497;SDS011;5296;51.060;13.750;2024-03-02T04:42:35;44.97;;;32.85;;
10497;SDS011;5296;51.060;13.750;2024-03-02T04:47:37;53.60;;;34.50;;
10497;SDS011;5296;51.060;13.750;2024-03-02T04:52:39;52.15;;;34.45;;
10497;SDS011;5296;51.060;13.750;2024-03-02T04:57:40;53.28;;;35.05;;
10497;SDS011;5296;51.060;13.750;2024-03-02T05:02:42;50.53;;;33.55;;
10497;SDS011;5296;51.060;13.750;2024-03-02T05:07:44;52.75;;;34.05;;
10497;SDS011;5296;51.060;13.750;2024-03-02T05:12:46;52.03;;;33.50;;
10497;SDS011;5296;51.060;13.750;2024-03-02T05:17:47;46.00;;;32.10;;
10497;SDS011;5296;51.060;13.750;2024-03-02T05:22:49;51.10;;;32.92;;
10497;SDS011;5296;51.060;13.750;2024-03-02T05:27:51;46.03;;;32.22;;
10497;SDS011;5296;51.060;13.750;2024-03-02T05:32:53;50.67;;;33.13;;
10497;SDS011;5296;51.060;13.750;2024-03-02T05:37:54;48.75;;;32.47;;
10497;SDS011;5296;51.060;13.750;2024-03-02T05:42:56;50.42;;;33.03;;
10497;SDS011;5296;51.060;13.750;2024-03-02T05:47:58;45.85;;;30.77;;
10497;SDS011;5296;51.060;13.750;2024-03-02T05:52:59;50.75;;;32.22;;
10497;SDS011;5296;51.060;13.750;2024-03-02T05:58:01;46.72;;;32.67;;
10497;SDS011;5296;51.060;13.750;2024-03-02T06:03:21;49.47;;;31.73;;
10497;SDS011;5296;51.060;13.750;2024-03-02T06:08:23;42.05;;;30.85;;
10497;SDS011;5296;51.060;13.750;2024-03-02T06:13:25;46.00;;;30.25;;
10497;SDS011;5296;51.060;13.750;2024-03-02T06:18:27;41.63;;;28.30;;
10497;SDS011;5296;51.060;13.750;2024-03-02T06:23:29;44.05;;;29.63;;
10497;SDS011;5296;51.060;13.750;2024-03-02T06:28:31;42.45;;;29.17;;
10497;SDS011;5296;51.060;13.750;2024-03-02T06:33:32;44.10;;;29.10;;
10497;SDS011;5296;51.060;13.750;2024-03-02T06:38:34;42.00;;;29.55;;
10497;SDS011;5296;51.060;13.750;2024-03-02T06:43:36;42.22;;;28.73;;
10497;SDS011;5296;51.060;13.750;2024-03-02T06:48:37;39.78;;;29.10;;
10497;SDS011;5296;51.060;13.750;2024-03-02T06:53:39;40.85;;;29.67;;
10497;SDS011;5296;51.060;13.750;2024-03-02T06:58:41;38.53;;;27.63;;
10497;SDS011;5296;51.060;13.750;2024-03-02T07:03:44;39.88;;;27.83;;
10497;SDS011;5296;51.060;13.750;2024-03-02T07:08:46;38.60;;;28.25;;
10497;SDS011;5296;51.060;13.750;2024-03-02T07:13:47;37.28;;;28.17;;
10497;SDS011;5296;51.060;13.750;2024-03-02T07:18:49;37.20;;;26.75;;
10497;SDS011;5296;51.060;13.750;2024-03-02T07:23:53;37.38;;;27.38;;
10497;SDS011;5296;51.060;13.750;2024-03-02T07:28:55;35.95;;;26.52;;
10497;SDS011;5296;51.060;13.750;2024-03-02T07:33:56;38.13;;;26.60;;
10497;SDS011;5296;51.060;13.750;2024-03-02T07:38:58;36.55;;;26.20;;
10497;SDS011;5296;51.060;13.750;2024-03-02T07:44:00;37.92;;;27.00;;
10497;SDS011;5296;51.060;13.750;2024-03-02T07:49:02;39.08;;;26.88;;
10497;SDS011;5296;51.060;13.750;2024-03-02T07:54:03;38.17;;;26.90;;
10497;SDS011;5296;51.060;13.750;2024-03-02T07:59:05;39.65;;;27.02;;
10497;SDS011;5296;51.060;13.750;2024-03-02T08:04:08;45.45;;;28.88;;
10497;SDS011;5296;51.060;13.750;2024-03-02T08:09:10;42.47;;;28.73;;
10497;SDS011;5296;51.060;13.750;2024-03-02T08:14:12;46.03;;;29.35;;
10497;SDS011;5296;51.060;13.750;2024-03-02T08:19:13;45.67;;;29.20;;
10497;SDS011;5296;51.060;13.750;2024-03-02T08:24:15;47.42;;;29.73;;
10497;SDS011;5296;51.060;13.750;2024-03-02T08:29:17;45.08;;;29.67;;
10497;SDS011;5296;51.060;13.750;2024-03-02T08:34:18;49.60;;;31.17;;
10497;SDS011;5296;51.060;13.750;2024-03-02T08:39:20;44.30;;;28.30;;
10497;SDS011;5296;51.060;13.750;2024-03-02T08:44:22;42.08;;;25.33;;
10497;SDS011;5296;51.060;13.750;2024-03-02T08:49:23;36.92;;;23.40;;
10497;SDS011;5296;51.060;13.750;2024-03-02T08:54:25;31.65;;;21.95;;
10497;SDS011;5296;51.060;13.750;2024-03-02T08:59:27;32.47;;;21.42;;
10497;SDS011;5296;51.060;13.750;2024-03-02T09:04:29;31.92;;;21.52;;
10497;SDS011;5296;51.060;13.750;2024-03-02T09:09:35;27.67;;;19.77;;
10497;SDS011;5296;51.060;13.750;2024-03-02T09:14:37;29.15;;;19.60;;
10497;SDS011;5296;51.060;13.750;2024-03-02T09:19:40;31.48;;;20.52;;
10497;SDS011;5296;51.060;13.750;2024-03-02T09:24:41;27.27;;;19.60;;
10497;SDS011;5296;51.060;13.750;2024-03-02T09:29:43;24.27;;;17.60;;
10497;SDS011;5296;51.060;13.750;2024-03-02T09:34:45;25.48;;;17.65;;
10497;SDS011;5296;51.060;13.750;2024-03-02T09:39:46;26.17;;;18.77;;
10497;SDS011;5296;51.060;13.750;2024-03-02T09:44:48;24.95;;;17.98;;
10497;SDS011;5296;51.060;13.750;2024-03-02T09:49:50;29.10;;;18.35;;
10497;SDS011;5296;51.060;13.750;2024-03-02T09:54:51;28.27;;;18.20;;
10497;SDS011;5296;51.060;13.750;2024-03-02T09:59:53;28.35;;;19.67;;
10497;SDS011;5296;51.060;13.750;2024-03-02T10:04:55;28.30;;;19.38;;
10497;SDS011;5296;51.060;13.750;2024-03-02T10:09:57;32.45;;;20.63;;
10497;SDS011;5296;51.060;13.750;2024-03-02T10:15:05;32.65;;;21.60;;
10497;SDS011;5296;51.060;13.750;2024-03-02T10:25:42;27.88;;;20.13;;
10497;SDS011;5296;51.060;13.750;2024-03-02T10:30:58;32.35;;;20.58;;
10497;SDS011;5296;51.060;13.750;2024-03-02T10:35:59;30.55;;;18.98;;
10497;SDS011;5296;51.060;13.750;2024-03-02T10:41:02;28.35;;;19.98;;
10497;SDS011;5296;51.060;13.750;2024-03-02T10:46:05;28.50;;;19.10;;
10497;SDS011;5296;51.060;13.750;2024-03-02T10:51:06;25.85;;;18.95;;
10497;SDS011;5296;51.060;13.750;2024-03-02T10:56:08;25.55;;;18.77;;
10497;SDS011;5296;51.060;13.750;2024-03-02T11:01:11;22.60;;;17.35;;
10497;SDS011;5296;51.060;13.750;2024-03-02T11:06:14;25.05;;;17.05;;
10497;SDS011;5296;51.060;13.750;2024-03-02T11:11:17;19.40;;;13.15;;
10497;SDS011;5296;51.060;13.750;2024-03-02T11:16:34;16.48;;;12.85;;
10497;SDS011;5296;51.060;13.750;2024-03-02T11:21:37;13.00;;;10.40;;
10497;SDS011;5296;51.060;13.750;2024-03-02T11:26:39;12.13;;;10.25;;
10497;SDS011;5296;51.060;13.750;2024-03-02T11:31:57;9.80;;;8.23;;
10497;SDS011;5296;51.060;13.750;2024-03-02T11:37:03;12.30;;;8.75;;
10497;SDS011;5296;51.060;13.750;2024-03-02T11:42:05;12.10;;;8.55;;
10497;SDS011;5296;51.060;13.750;2024-03-02T11:47:08;10.48;;;8.63;;
10497;SDS011;5296;51.060;13.750;2024-03-02T11:52:12;10.45;;;8.25;;
10497;SDS011;5296;51.060;13.750;2024-03-02T11:57:19;10.75;;;8.43;;
10497;SDS011;5296;51.060;13.750;2024-03-02T12:02:24;10.23;;;7.78;;
10497;SDS011;5296;51.060;13.750;2024-03-02T12:07:25;9.02;;;7.88;;
10497;SDS011;5296;51.060;13.750;2024-03-02T12:12:28;12.68;;;8.80;;
10497;SDS011;5296;51.060;13.750;2024-03-02T12:17:29;10.18;;;8.85;;
10497;SDS011;5296;51.060;13.750;2024-03-02T12:22:31;17.13;;;11.77;;
10497;SDS011;5296;51.060;13.750;2024-03-02T12:27:33;15.55;;;11.27;;
10497;SDS011;5296;51.060;13.750;2024-03-02T12:32:35;17.65;;;11.63;;
10497;SDS011;5296;51.060;13.750;2024-03-02T12:37:41;23.15;;;13.88;;
10497;SDS011;5296;51.060;13.750;2024-03-02T12:42:48;18.00;;;12.95;;
10497;SDS011;5296;51.060;13.750;2024-03-02T12:47:50;16.85;;;12.63;;
10497;SDS011;5296;51.060;13.750;2024-03-02T12:52:53;17.50;;;12.55;;
10497;SDS011;5296;51.060;13.750;2024-03-02T12:57:55;16.48;;;12.02;;
10497;SDS011;5296;51.060;13.750;2024-03-02T13:02:58;17.17;;;11.77;;
10497;SDS011;5296;51.060;13.750;2024-03-02T13:08:04;16.67;;;11.90;;
10497;SDS011;5296;51.060;13.750;2024-03-02T13:13:06;17.40;;;12.45;;
10497;SDS011;5296;51.060;13.750;2024-03-02T13:18:08;18.77;;;11.85;;
10497;SDS011;5296;51.060;13.750;2024-03-02T13:23:10;17.08;;;11.65;;
10497;SDS011;5296;51.060;13.750;2024-03-02T13:28:12;14.52;;;11.52;;
10497;SDS011;5296;51.060;13.750;2024-03-02T13:33:14;18.83;;;11.38;;
10497;SDS011;5296;51.060;13.750;2024-03-02T13:38:20;18.65;;;12.55;;
10497;SDS011;5296;51.060;13.750;2024-03-02T13:43:21;14.00;;;10.73;;
10497;SDS011;5296;51.060;13.750;2024-03-02T13:48:25;20.25;;;12.50;;
10497;SDS011;5296;51.060;13.750;2024-03-02T13:53:29;15.40;;;11.30;;
10497;SDS011;5296;51.060;13.750;2024-03-02T13:58:31;15.30;;;11.45;;
10497;SDS011;5296;51.060;13.750;2024-03-02T14:03:33;17.83;;;11.50;;
10497;SDS011;5296;51.060;13.750;2024-03-02T14:08:35;16.08;;;11.18;;
10497;SDS011;5296;51.060;13.750;2024-03-02T14:13:37;16.65;;;11.52;;
10497;SDS011;5296;51.060;13.750;2024-03-02T14:18:38;14.00;;;11.27;;
10497;SDS011;5296;51.060;13.750;2024-03-02T14:23:40;22.52;;;13.90;;
10497;SDS011;5296;51.060;13.750;2024-03-02T14:28:42;19.85;;;14.02;;
10497;SDS011;5296;51.060;13.750;2024-03-02T14:33:52;21.27;;;14.68;;
10497;SDS011;5296;51.060;13.750;2024-03-02T14:38:54;20.77;;;13.55;;
10497;SDS011;5296;51.060;13.750;2024-03-02T14:43:56;17.48;;;13.57;;
10497;SDS011;5296;51.060;13.750;2024-03-02T14:48:58;17.13;;;13.25;;
10497;SDS011;5296;51.060;13.750;2024-03-02T14:54:00;18.63;;;13.45;;
10497;SDS011;5296;51.060;13.750;2024-03-02T14:59:02;16.88;;;13.27;;
10497;SDS011;5296;51.060;13.750;2024-03-02T15:04:04;17.20;;;13.82;;
10497;SDS011;5296;51.060;13.750;2024-03-02T15:09:06;17.23;;;12.35;;
10497;SDS011;5296;51.060;13.750;2024-03-02T15:14:07;20.88;;;13.65;;
10497;SDS011;5296;51.060;13.750;2024-03-02T15:19:09;16.98;;;12.18;;
10497;SDS011;5296;51.060;13.750;2024-03-02T15:24:11;14.90;;;11.95;;
10497;SDS011;5296;51.060;13.750;2024-03-02T15:29:13;18.08;;;12.15;;
10497;SDS011;5296;51.060;13.750;2024-03-02T15:34:14;15.77;;;11.70;;
10497;SDS011;5296;51.060;13.750;2024-03-02T15:39:16;17.30;;;11.65;;
10497;SDS011;5296;51.060;13.750;2024-03-02T15:44:19;18.27;;;11.90;;
10497;SDS011;5296;51.060;13.750;2024-03-02T15:49:21;15.98;;;12.23;;
10497;SDS011;5296;51.060;13.750;2024-03-02T15:54:23;16.85;;;12.52;;
10497;SDS011;5296;51.060;13.750;2024-03-02T15:59:24;16.83;;;12.98;;
10497;SDS011;5296;51.060;13.750;2024-03-02T16:04:26;21.92;;;13.25;;
10497;SDS011;5296;51.060;13.750;2024-03-02T16:09:28;19.23;;;12.63;;
10497;SDS011;5296;51.060;13.750;2024-03-02T16:14:29;20.10;;;14.27;;
10497;SDS011;5296;51.060;13.750;2024-03-02T16:19:31;15.93;;;13.10;;
10497;SDS011;5296;51.060;13.750;2024-03-02T16:24:34;16.13;;;12.68;;
10497;SDS011;5296;51.060;13.750;2024-03-02T16:29:35;18.55;;;12.68;;
10497;SDS011;5296;51.060;13.750;2024-03-02T16:34:38;15.18;;;12.65;;
10497;SDS011;5296;51.060;13.750;2024-03-02T16:39:40;21.80;;;13.18;;
10497;SDS011;5296;51.060;13.750;2024-03-02T16:44:42;17.50;;;12.52;;
10497;SDS011;5296;51.060;13.750;2024-03-02T16:49:44;18.58;;;13.00;;
10497;SDS011;5296;51.060;13.750;2024-03-02T16:54:49;16.60;;;13.07;;
10497;SDS011;5296;51.060;13.750;2024-03-02T16:59:51;16.40;;;12.52;;
10497;SDS011;5296;51.060;13.750;2024-03-02T17:04:54;16.85;;;12.38;;
10497;SDS011;5296;51.060;13.750;2024-03-02T17:09:56;18.15;;;13.23;;
10497;SDS011;5296;51.060;13.750;2024-03-02T17:14:59;15.98;;;12.98;;
10497;SDS011;5296;51.060;13.750;2024-03-02T17:20:01;16.50;;;13.90;;
10497;SDS011;5296;51.060;13.750;2024-03-02T17:25:03;18.35;;;15.05;;
10497;SDS011;5296;51.060;13.750;2024-03-02T17:30:06;21.50;;;17.73;;
10497;SDS011;5296;51.060;13.750;2024-03-02T17:35:08;19.98;;;15.52;;
10497;SDS011;5296;51.060;13.750;2024-03-02T17:40:10;18.75;;;14.70;;
10497;SDS011;5296;51.060;13.750;2024-03-02T17:45:12;18.20;;;15.05;;
10497;SDS011;5296;51.060;13.750;2024-03-02T17:50:14;17.45;;;15.65;;
10497;SDS011;5296;51.060;13.750;2024-03-02T17:55:16;19.67;;;15.13;;
10497;SDS011;5296;51.060;13.750;2024-03-02T18:00:17;20.23;;;15.88;;
10497;SDS011;5296;51.060;13.750;2024-03-02T18:05:21;18.52;;;15.20;;
10497;SDS011;5296;51.060;13.750;2024-03-02T18:10:22;16.88;;;15.15;;
10497;SDS011;5296;51.060;13.750;2024-03-02T18:15:24;19.02;;;15.73;;
10497;SDS011;5296;51.060;13.750;2024-03-02T18:20:26;18.25;;;16.17;;
10497;SDS011;5296;51.060;13.750;2024-03-02T18:25:27;19.13;;;16.40;;
10497;SDS011;5296;51.060;13.750;2024-03-02T18:30:29;17.52;;;15.23;;
10497;SDS011;5296;51.060;13.750;2024-03-02T18:35:32;19.20;;;16.30;;
10497;SDS011;5296;51.060;13.750;2024-03-02T18:40:34;19.00;;;15.75;;
10497;SDS011;5296;51.060;13.750;2024-03-02T18:45:36;20.35;;;17.05;;
10497;SDS011;5296;51.060;13.750;2024-03-02T18:50:38;20.02;;;17.15;;
10497;SDS011;5296;51.060;13.750;2024-03-02T18:55:39;18.77;;;15.90;;
10497;SDS011;5296;51.060;13.750;2024-03-02T19:00:41;19.88;;;16.85;;
10497;SDS011;5296;51.060;13.750;2024-03-02T19:05:43;20.58;;;17.08;;
10497;SDS011;5296;51.060;13.750;2024-03-02T19:10:45;19.48;;;16.08;;
10497;SDS011;5296;51.060;13.750;2024-03-02T19:15:47;21.85;;;16.70;;
10497;SDS011;5296;51.060;13.750;2024-03-02T19:20:49;23.30;;;18.15;;
10497;SDS011;5296;51.060;13.750;2024-03-02T19:25:52;22.75;;;17.48;;
10497;SDS011;5296;51.060;13.750;2024-03-02T19:30:55;19.83;;;16.90;;
10497;SDS011;5296;51.060;13.750;2024-03-02T19:35:57;21.02;;;18.38;;
10497;SDS011;5296;51.060;13.750;2024-03-02T19:40:58;23.77;;;19.05;;
10497;SDS011;5296;51.060;13.750;2024-03-02T19:46:00;22.50;;;19.17;;
10497;SDS011;5296;51.060;13.750;2024-03-02T19:51:02;24.45;;;19.38;;
10497;SDS011;5296;51.060;13.750;2024-03-02T19:56:04;25.02;;;20.58;;
10497;SDS011;5296;51.060;13.750;2024-03-02T20:01:06;23.85;;;20.02;;
10497;SDS011;5296;51.060;13.750;2024-03-02T20:06:09;25.33;;;21.08;;
10497;SDS011;5296;51.060;13.750;2024-03-02T20:11:11;26.60;;;21.45;;
10497;SDS011;5296;51.060;13.750;2024-03-02T20:16:12;25.25;;;20.00;;
10497;SDS011;5296;51.060;13.750;2024-03-02T20:21:14;25.75;;;20.88;;
10497;SDS011;5296;51.060;13.750;2024-03-02T20:26:16;23.67;;;20.10;;
10497;SDS011;5296;51.060;13.750;2024-03-02T20:31:22;23.98;;;20.52;;
10497;SDS011;5296;51.060;13.750;2024-03-02T20:36:23;26.48;;;21.52;;
10497;SDS011;5296;51.060;13.750;2024-03-02T20:41:25;28.75;;;20.30;;
10497;SDS011;5296;51.060;13.750;2024-03-02T20:46:27;25.10;;;21.63;;
10497;SDS011;5296;51.060;13.750;2024-03-02T20:51:29;26.55;;;21.40;;
10497;SDS011;5296;51.060;13.750;2024-03-02T20:56:31;28.30;;;21.77;;
10497;SDS011;5296;51.060;13.750;2024-03-02T21:01:37;28.42;;;22.77;;
10497;SDS011;5296;51.060;13.750;2024-03-02T21:06:38;27.10;;;21.88;;
10497;SDS011;5296;51.060;13.750;2024-03-02T21:11:40;28.63;;;22.38;;
10497;SDS011;5296;51.060;13.750;2024-03-02T21:16:45;30.45;;;23.13;;
10497;SDS011;5296;51.060;13.750;2024-03-02T21:21:47;27.73;;;22.90;;
10497;SDS011;5296;51.060;13.750;2024-03-02T21:26:49;27.60;;;22.65;;
10497;SDS011;5296;51.060;13.750;2024-03-02T21:31:51;29.83;;;23.67;;
10497;SDS011;5296;51.060;13.750;2024-03-02T21:36:55;30.05;;;24.60;;
10497;SDS011;5296;51.060;13.750;2024-03-02T21:41:57;29.05;;;23.63;;
10497;SDS011;5296;51.060;13.750;2024-03-02T21:46:59;28.13;;;23.02;;
10497;SDS011;5296;51.060;13.750;2024-03-02T21:52:02;28.45;;;23.55;;
10497;SDS011;5296;51.060;13.750;2024-03-02T21:57:04;28.58;;;23.85;;
10497;SDS011;5296;51.060;13.750;2024-03-02T22:02:07;28.25;;;23.77;;
10497;SDS011;5296;51.060;13.750;2024-03-02T22:07:09;28.95;;;23.65;;
10497;SDS011;5296;51.060;13.750;2024-03-02T22:12:11;30.00;;;22.65;;
10497;SDS011;5296;51.060;13.750;2024-03-02T22:17:12;27.48;;;23.33;;
10497;SDS011;5296;51.060;13.750;2024-03-02T22:22:14;30.48;;;24.42;;
10497;SDS011;5296;51.060;13.750;2024-03-02T22:27:16;28.02;;;23.83;;
10497;SDS011;5296;51.060;13.750;2024-03-02T22:32:18;29.85;;;24.27;;
10497;SDS011;5296;51.060;13.750;2024-03-02T22:37:19;34.13;;;24.58;;
10497;SDS011;5296;51.060;13.750;2024-03-02T22:42:21;29.73;;;23.52;;
10497;SDS011;5296;51.060;13.750;2024-03-02T22:47:23;26.80;;;22.35;;
10497;SDS011;5296;51.060;13.750;2024-03-02T22:52:25;29.05;;;22.75;;
10497;SDS011;5296;51.060;13.750;2024-03-02T22:57:26;28.02;;;22.23;;
10497;SDS011;5296;51.060;13.750;2024-03-02T23:02:28;26.00;;;21.95;;
10497;SDS011;5296;51.060;13.750;2024-03-02T23:07:31;26.30;;;20.83;;
10497;SDS011;5296;51.060;13.750;2024-03-02T23:12:32;24.95;;;20.77;;
10497;SDS011;5296;51.060;13.750;2024-03-02T23:17:34;26.05;;;19.67;;
10497;SDS011;5296;51.060;13.750;2024-03-02T23:22:36;23.45;;;20.85;;
10497;SDS011;5296;51.060;13.750;2024-03-02T23:27:38;23.60;;;20.15;;
10497;SDS011;5296;51.060;13.750;2024-03-02T23:32:39;23.20;;;19.90;;
10497;SDS011;5296;51.060;13.750;2024-03-02T23:37:41;23.92;;;19.48;;
10497;SDS011;5296;51.060;13.750;2024-03-02T23:42:43;22.95;;;18.38;;
10497;SDS011;5296;51.060;13.750;2024-03-02T23:47:45;20.55;;;17.83;;
10497;SDS011;5296;51.060;13.750;2024-03-02T23:52:47;21.48;;;18.40;;
10497;SDS011;5296;51.060;13.750;2024-03-02T23:57:49;19.15;;;16.33;;
